sensor_id;sensor_type;location;lat;lon;timestamp;temperature;humidity
13521;DHT22;6832;51.186;3.236;2022-12-20T00:12:38;13.40;91.20
13521;DHT22;6832;51.186;3.236;2022-12-20T00:15:29;13.40;91.20
13521;DHT22;6832;51.186;3.236;2022-12-20T00:18:28;13.40;91.20
13521;DHT22;6832;51.186;3.236;2022-12-20T00:21:15;13.40;91.20
13521;DHT22;6832;51.186;3.236;2022-12-20T00:24:12;13.40;91.30
13521;DHT22;6832;51.186;3.236;2022-12-20T00:33:29;13.40;91.60
13521;DHT22;6832;51.186;3.236;2022-12-20T00:42:33;13.50;91.80
13521;DHT22;6832;51.186;3.236;2022-12-20T00:45:26;13.60;91.90
13521;DHT22;6832;51.186;3.236;2022-12-20T01:32:34;13.80;91.30
13521;DHT22;6832;51.186;3.236;2022-12-20T01:35:53;13.80;91.30
13521;DHT22;6832;51.186;3.236;2022-12-20T01:41:46;13.80;91.30
13521;DHT22;6832;51.186;3.236;2022-12-20T01:58:13;13.80;91.20
13521;DHT22;6832;51.186;3.236;2022-12-20T02:01:04;13.90;91.20
13521;DHT22;6832;51.186;3.236;2022-12-20T02:03:47;13.80;91.20
13521;DHT22;6832;51.186;3.236;2022-12-20T02:06:39;13.90;91.50
13521;DHT22;6832;51.186;3.236;2022-12-20T02:09:28;13.90;91.20
13521;DHT22;6832;51.186;3.236;2022-12-20T02:12:18;13.90;91.70
13521;DHT22;6832;51.186;3.236;2022-12-20T02:21:51;13.90;91.50
13521;DHT22;6832;51.186;3.236;2022-12-20T02:28:06;13.90;91.60
13521;DHT22;6832;51.186;3.236;2022-12-20T02:34:01;14.00;91.40
13521;DHT22;6832;51.186;3.236;2022-12-20T02:36:56;13.90;91.30
13521;DHT22;6832;51.186;3.236;2022-12-20T02:42:46;13.90;91.50
13521;DHT22;6832;51.186;3.236;2022-12-20T02:45:42;14.00;91.20
13521;DHT22;6832;51.186;3.236;2022-12-20T02:48:33;14.00;91.50
13521;DHT22;6832;51.186;3.236;2022-12-20T02:51:10;13.90;91.60
13521;DHT22;6832;51.186;3.236;2022-12-20T02:53:43;13.90;91.70
13521;DHT22;6832;51.186;3.236;2022-12-20T02:56:19;13.90;91.90
13521;DHT22;6832;51.186;3.236;2022-12-20T02:59:00;13.90;92.00
13521;DHT22;6832;51.186;3.236;2022-12-20T03:01:56;13.90;92.10
13521;DHT22;6832;51.186;3.236;2022-12-20T03:04:59;13.80;92.10
13521;DHT22;6832;51.186;3.236;2022-12-20T03:08:00;13.80;92.00
13521;DHT22;6832;51.186;3.236;2022-12-20T03:10:54;13.80;92.00
13521;DHT22;6832;51.186;3.236;2022-12-20T03:13:31;13.70;91.90
13521;DHT22;6832;51.186;3.236;2022-12-20T03:16:18;13.70;92.20
13521;DHT22;6832;51.186;3.236;2022-12-20T03:21:51;13.70;92.30
13521;DHT22;6832;51.186;3.236;2022-12-20T03:24:48;13.70;92.20
13521;DHT22;6832;51.186;3.236;2022-12-20T03:28:08;13.70;92.10
13521;DHT22;6832;51.186;3.236;2022-12-20T03:34:26;13.70;91.90
13521;DHT22;6832;51.186;3.236;2022-12-20T03:40:55;13.70;91.90
13521;DHT22;6832;51.186;3.236;2022-12-20T03:43:49;13.70;91.70
13521;DHT22;6832;51.186;3.236;2022-12-20T03:46:49;13.70;91.80
13521;DHT22;6832;51.186;3.236;2022-12-20T03:49:48;13.80;91.70
13521;DHT22;6832;51.186;3.236;2022-12-20T03:52:45;13.80;91.70
13521;DHT22;6832;51.186;3.236;2022-12-20T03:59:13;13.80;91.50
13521;DHT22;6832;51.186;3.236;2022-12-20T04:02:31;13.80;91.40
13521;DHT22;6832;51.186;3.236;2022-12-20T04:34:02;14.00;90.00
13521;DHT22;6832;51.186;3.236;2022-12-20T04:36:56;14.00;89.70
13521;DHT22;6832;51.186;3.236;2022-12-20T04:42:49;14.10;90.00
13521;DHT22;6832;51.186;3.236;2022-12-20T04:45:33;14.10;89.70
13521;DHT22;6832;51.186;3.236;2022-12-20T04:48:10;14.10;89.30
13521;DHT22;6832;51.186;3.236;2022-12-20T04:57:48;14.10;89.00
13521;DHT22;6832;51.186;3.236;2022-12-20T05:00:30;14.10;89.40
13521;DHT22;6832;51.186;3.236;2022-12-20T05:03:57;14.10;89.40
13521;DHT22;6832;51.186;3.236;2022-12-20T05:06:38;14.10;89.50
13521;DHT22;6832;51.186;3.236;2022-12-20T05:09:37;14.10;89.70
13521;DHT22;6832;51.186;3.236;2022-12-20T05:15:50;14.20;89.60
13521;DHT22;6832;51.186;3.236;2022-12-20T05:18:26;14.20;89.60
13521;DHT22;6832;51.186;3.236;2022-12-20T05:21:23;14.20;89.20
13521;DHT22;6832;51.186;3.236;2022-12-20T05:24:11;14.20;88.60
13521;DHT22;6832;51.186;3.236;2022-12-20T05:26:57;14.20;89.50
13521;DHT22;6832;51.186;3.236;2022-12-20T05:29:34;14.30;89.00
13521;DHT22;6832;51.186;3.236;2022-12-20T05:32:43;14.30;88.70
13521;DHT22;6832;51.186;3.236;2022-12-20T05:35:28;14.30;89.10
13521;DHT22;6832;51.186;3.236;2022-12-20T05:38:04;14.30;88.60
13521;DHT22;6832;51.186;3.236;2022-12-20T05:41:13;14.40;88.90
13521;DHT22;6832;51.186;3.236;2022-12-20T05:44:17;14.40;88.40
13521;DHT22;6832;51.186;3.236;2022-12-20T05:47:26;14.40;88.40
13521;DHT22;6832;51.186;3.236;2022-12-20T05:53:39;14.50;87.90
13521;DHT22;6832;51.186;3.236;2022-12-20T05:56:46;14.50;87.80
13521;DHT22;6832;51.186;3.236;2022-12-20T05:59:39;14.50;87.40
13521;DHT22;6832;51.186;3.236;2022-12-20T06:05:59;14.60;86.90
13521;DHT22;6832;51.186;3.236;2022-12-20T06:11:56;14.60;87.20
13521;DHT22;6832;51.186;3.236;2022-12-20T06:14:37;14.60;86.80
13521;DHT22;6832;51.186;3.236;2022-12-20T06:17:34;14.60;86.80
13521;DHT22;6832;51.186;3.236;2022-12-20T06:23:55;14.70;87.40
13521;DHT22;6832;51.186;3.236;2022-12-20T06:40:16;14.60;87.80
13521;DHT22;6832;51.186;3.236;2022-12-20T06:43:11;14.50;87.20
13521;DHT22;6832;51.186;3.236;2022-12-20T06:45:53;14.50;87.60
13521;DHT22;6832;51.186;3.236;2022-12-20T06:48:31;14.50;87.50
13521;DHT22;6832;51.186;3.236;2022-12-20T06:51:13;14.50;87.70
13521;DHT22;6832;51.186;3.236;2022-12-20T07:14:13;14.40;89.80
13521;DHT22;6832;51.186;3.236;2022-12-20T07:16:54;14.40;90.10
13521;DHT22;6832;51.186;3.236;2022-12-20T07:19:25;14.40;90.20
13521;DHT22;6832;51.186;3.236;2022-12-20T07:21:55;14.30;90.40
13521;DHT22;6832;51.186;3.236;2022-12-20T07:24:32;14.30;90.50
13521;DHT22;6832;51.186;3.236;2022-12-20T07:27:12;14.30;90.80
13521;DHT22;6832;51.186;3.236;2022-12-20T07:39:38;14.20;91.40
13521;DHT22;6832;51.186;3.236;2022-12-20T07:42:12;14.10;91.40
13521;DHT22;6832;51.186;3.236;2022-12-20T07:45:03;14.00;91.60
13521;DHT22;6832;51.186;3.236;2022-12-20T07:47:32;14.10;92.00
13521;DHT22;6832;51.186;3.236;2022-12-20T07:50:16;14.00;91.90
13521;DHT22;6832;51.186;3.236;2022-12-20T07:52:49;14.00;92.00
13521;DHT22;6832;51.186;3.236;2022-12-20T07:55:27;14.00;92.00
13521;DHT22;6832;51.186;3.236;2022-12-20T07:58:05;13.90;92.10
13521;DHT22;6832;51.186;3.236;2022-12-20T08:00:40;13.90;92.30
13521;DHT22;6832;51.186;3.236;2022-12-20T08:03:22;13.90;92.30
13521;DHT22;6832;51.186;3.236;2022-12-20T08:05:54;13.90;92.30
13521;DHT22;6832;51.186;3.236;2022-12-20T08:08:23;13.90;92.20
13521;DHT22;6832;51.186;3.236;2022-12-20T08:10:55;13.90;92.30
13521;DHT22;6832;51.186;3.236;2022-12-20T08:13:24;13.80;92.30
13521;DHT22;6832;51.186;3.236;2022-12-20T08:15:52;13.80;92.30
13521;DHT22;6832;51.186;3.236;2022-12-20T08:18:20;13.90;92.30
13521;DHT22;6832;51.186;3.236;2022-12-20T08:20:56;13.90;92.30
13521;DHT22;6832;51.186;3.236;2022-12-20T08:23:29;13.90;92.20
13521;DHT22;6832;51.186;3.236;2022-12-20T08:26:10;13.90;92.30
13521;DHT22;6832;51.186;3.236;2022-12-20T08:28:59;13.90;92.30
13521;DHT22;6832;51.186;3.236;2022-12-20T08:31:32;13.90;92.50
13521;DHT22;6832;51.186;3.236;2022-12-20T08:36:54;13.90;92.40
13521;DHT22;6832;51.186;3.236;2022-12-20T08:39:30;13.90;92.40
13521;DHT22;6832;51.186;3.236;2022-12-20T08:42:19;13.90;92.40
13521;DHT22;6832;51.186;3.236;2022-12-20T08:44:55;13.90;92.50
13521;DHT22;6832;51.186;3.236;2022-12-20T08:48:12;13.90;92.50
13521;DHT22;6832;51.186;3.236;2022-12-20T08:50:54;14.00;92.40
13521;DHT22;6832;51.186;3.236;2022-12-20T08:56:58;14.00;92.40
13521;DHT22;6832;51.186;3.236;2022-12-20T08:59:47;14.00;92.20
13521;DHT22;6832;51.186;3.236;2022-12-20T09:02:33;13.90;92.20
13521;DHT22;6832;51.186;3.236;2022-12-20T09:05:04;14.00;92.20
13521;DHT22;6832;51.186;3.236;2022-12-20T09:07:45;14.00;92.30
13521;DHT22;6832;51.186;3.236;2022-12-20T09:10:29;14.00;92.30
13521;DHT22;6832;51.186;3.236;2022-12-20T09:13:25;14.00;92.30
13521;DHT22;6832;51.186;3.236;2022-12-20T09:15:59;14.00;92.30
13521;DHT22;6832;51.186;3.236;2022-12-20T09:18:40;14.00;92.30
13521;DHT22;6832;51.186;3.236;2022-12-20T09:21:17;14.00;92.30
13521;DHT22;6832;51.186;3.236;2022-12-20T09:24:00;14.00;92.40
13521;DHT22;6832;51.186;3.236;2022-12-20T09:26:37;14.10;92.40
13521;DHT22;6832;51.186;3.236;2022-12-20T09:29:13;14.10;92.60
13521;DHT22;6832;51.186;3.236;2022-12-20T09:31:45;14.10;92.60
13521;DHT22;6832;51.186;3.236;2022-12-20T09:34:18;14.10;92.60
13521;DHT22;6832;51.186;3.236;2022-12-20T09:36:47;14.00;92.70
13521;DHT22;6832;51.186;3.236;2022-12-20T09:39:15;14.10;92.80
13521;DHT22;6832;51.186;3.236;2022-12-20T09:41:59;14.00;92.90
13521;DHT22;6832;51.186;3.236;2022-12-20T09:44:31;14.00;93.10
13521;DHT22;6832;51.186;3.236;2022-12-20T09:47:14;14.00;93.10
13521;DHT22;6832;51.186;3.236;2022-12-20T09:49:48;14.00;93.10
13521;DHT22;6832;51.186;3.236;2022-12-20T09:52:28;14.00;93.40
13521;DHT22;6832;51.186;3.236;2022-12-20T09:55:14;14.00;93.40
13521;DHT22;6832;51.186;3.236;2022-12-20T09:58:00;14.00;93.50
13521;DHT22;6832;51.186;3.236;2022-12-20T10:04:18;14.00;93.60
13521;DHT22;6832;51.186;3.236;2022-12-20T10:07:09;14.00;93.60
13521;DHT22;6832;51.186;3.236;2022-12-20T10:10:15;14.00;93.90
13521;DHT22;6832;51.186;3.236;2022-12-20T10:12:53;14.00;94.00
13521;DHT22;6832;51.186;3.236;2022-12-20T10:15:31;14.00;94.00
13521;DHT22;6832;51.186;3.236;2022-12-20T10:18:17;14.00;93.80
13521;DHT22;6832;51.186;3.236;2022-12-20T10:20:56;14.00;93.90
13521;DHT22;6832;51.186;3.236;2022-12-20T10:23:39;14.00;93.90
13521;DHT22;6832;51.186;3.236;2022-12-20T10:26:08;14.00;94.00
13521;DHT22;6832;51.186;3.236;2022-12-20T10:28:40;14.10;94.00
13521;DHT22;6832;51.186;3.236;2022-12-20T10:31:15;14.00;94.10
13521;DHT22;6832;51.186;3.236;2022-12-20T10:33:43;14.00;94.40
13521;DHT22;6832;51.186;3.236;2022-12-20T10:36:21;14.00;94.10
13521;DHT22;6832;51.186;3.236;2022-12-20T10:38:53;14.00;94.20
13521;DHT22;6832;51.186;3.236;2022-12-20T10:41:22;14.00;94.30
13521;DHT22;6832;51.186;3.236;2022-12-20T10:43:54;14.00;94.20
13521;DHT22;6832;51.186;3.236;2022-12-20T10:46:35;14.00;94.30
13521;DHT22;6832;51.186;3.236;2022-12-20T10:49:27;14.00;94.30
13521;DHT22;6832;51.186;3.236;2022-12-20T10:52:11;14.00;94.50
13521;DHT22;6832;51.186;3.236;2022-12-20T10:54:40;14.00;94.50
13521;DHT22;6832;51.186;3.236;2022-12-20T10:57:15;14.00;94.40
13521;DHT22;6832;51.186;3.236;2022-12-20T10:59:49;14.00;94.60
13521;DHT22;6832;51.186;3.236;2022-12-20T11:02:26;14.00;94.50
13521;DHT22;6832;51.186;3.236;2022-12-20T11:05:21;14.00;94.70
13521;DHT22;6832;51.186;3.236;2022-12-20T11:08:11;14.00;94.60
13521;DHT22;6832;51.186;3.236;2022-12-20T11:10:41;14.00;94.60
13521;DHT22;6832;51.186;3.236;2022-12-20T11:13:20;14.00;94.50
13521;DHT22;6832;51.186;3.236;2022-12-20T11:15:50;14.00;94.60
13521;DHT22;6832;51.186;3.236;2022-12-20T11:18:26;14.10;94.40
13521;DHT22;6832;51.186;3.236;2022-12-20T11:21:02;14.00;94.40
13521;DHT22;6832;51.186;3.236;2022-12-20T11:23:39;14.00;94.50
13521;DHT22;6832;51.186;3.236;2022-12-20T11:26:27;14.00;94.60
13521;DHT22;6832;51.186;3.236;2022-12-20T11:29:06;14.00;94.70
13521;DHT22;6832;51.186;3.236;2022-12-20T11:31:47;14.00;94.80
13521;DHT22;6832;51.186;3.236;2022-12-20T11:34:31;14.00;94.60
13521;DHT22;6832;51.186;3.236;2022-12-20T11:37:16;14.00;94.60
13521;DHT22;6832;51.186;3.236;2022-12-20T11:39:58;14.00;94.80
13521;DHT22;6832;51.186;3.236;2022-12-20T11:42:46;14.00;94.80
13521;DHT22;6832;51.186;3.236;2022-12-20T11:45:23;14.00;94.90
13521;DHT22;6832;51.186;3.236;2022-12-20T11:48:21;13.90;94.90
13521;DHT22;6832;51.186;3.236;2022-12-20T11:51:03;14.00;95.50
13521;DHT22;6832;51.186;3.236;2022-12-20T11:53:42;14.00;95.00
13521;DHT22;6832;51.186;3.236;2022-12-20T11:56:17;14.00;94.80
13521;DHT22;6832;51.186;3.236;2022-12-20T11:58:54;13.90;95.00
13521;DHT22;6832;51.186;3.236;2022-12-20T12:01:31;13.90;95.00
13521;DHT22;6832;51.186;3.236;2022-12-20T12:04:08;13.90;95.20
13521;DHT22;6832;51.186;3.236;2022-12-20T12:06:41;13.90;95.20
13521;DHT22;6832;51.186;3.236;2022-12-20T12:09:16;13.90;95.20
13521;DHT22;6832;51.186;3.236;2022-12-20T12:11:49;13.90;95.00
13521;DHT22;6832;51.186;3.236;2022-12-20T12:14:30;13.90;95.20
13521;DHT22;6832;51.186;3.236;2022-12-20T12:17:08;13.90;95.30
13521;DHT22;6832;51.186;3.236;2022-12-20T12:19:41;13.90;95.30
13521;DHT22;6832;51.186;3.236;2022-12-20T12:22:18;13.90;95.30
13521;DHT22;6832;51.186;3.236;2022-12-20T12:24:53;13.90;95.40
13521;DHT22;6832;51.186;3.236;2022-12-20T12:27:33;13.90;95.40
13521;DHT22;6832;51.186;3.236;2022-12-20T12:30:05;13.90;95.40
13521;DHT22;6832;51.186;3.236;2022-12-20T12:32:50;13.90;95.40
13521;DHT22;6832;51.186;3.236;2022-12-20T12:35:53;13.90;95.40
13521;DHT22;6832;51.186;3.236;2022-12-20T12:38:44;13.90;95.40
13521;DHT22;6832;51.186;3.236;2022-12-20T12:41:33;13.90;95.40
13521;DHT22;6832;51.186;3.236;2022-12-20T12:44:27;13.90;95.50
13521;DHT22;6832;51.186;3.236;2022-12-20T12:47:02;14.00;95.50
13521;DHT22;6832;51.186;3.236;2022-12-20T12:49:35;13.90;95.40
13521;DHT22;6832;51.186;3.236;2022-12-20T12:52:36;13.90;95.40
13521;DHT22;6832;51.186;3.236;2022-12-20T12:55:40;13.90;95.60
13521;DHT22;6832;51.186;3.236;2022-12-20T12:58:33;13.90;95.60
13521;DHT22;6832;51.186;3.236;2022-12-20T13:01:52;13.90;95.80
13521;DHT22;6832;51.186;3.236;2022-12-20T13:04:28;13.90;95.80
13521;DHT22;6832;51.186;3.236;2022-12-20T13:07:19;13.90;95.70
13521;DHT22;6832;51.186;3.236;2022-12-20T13:09:50;13.90;96.10
13521;DHT22;6832;51.186;3.236;2022-12-20T13:12:57;13.90;95.50
13521;DHT22;6832;51.186;3.236;2022-12-20T13:16:03;13.90;95.90
13521;DHT22;6832;51.186;3.236;2022-12-20T13:18:35;13.90;95.90
13521;DHT22;6832;51.186;3.236;2022-12-20T13:24:46;13.90;95.90
13521;DHT22;6832;51.186;3.236;2022-12-20T13:27:28;14.00;95.70
13521;DHT22;6832;51.186;3.236;2022-12-20T13:30:25;13.90;96.10
13521;DHT22;6832;51.186;3.236;2022-12-20T13:33:23;13.90;95.90
13521;DHT22;6832;51.186;3.236;2022-12-20T13:36:31;13.90;95.80
13521;DHT22;6832;51.186;3.236;2022-12-20T13:42:05;13.90;95.70
13521;DHT22;6832;51.186;3.236;2022-12-20T13:44:40;13.90;95.60
13521;DHT22;6832;51.186;3.236;2022-12-20T13:47:33;13.90;95.70
13521;DHT22;6832;51.186;3.236;2022-12-20T13:50:33;13.90;95.90
13521;DHT22;6832;51.186;3.236;2022-12-20T13:53:15;13.90;95.90
13521;DHT22;6832;51.186;3.236;2022-12-20T13:55:44;13.90;95.80
13521;DHT22;6832;51.186;3.236;2022-12-20T13:58:16;13.90;95.80
13521;DHT22;6832;51.186;3.236;2022-12-20T14:01:03;13.90;95.90
13521;DHT22;6832;51.186;3.236;2022-12-20T14:03:31;13.90;95.90
13521;DHT22;6832;51.186;3.236;2022-12-20T14:06:01;13.90;95.80
13521;DHT22;6832;51.186;3.236;2022-12-20T14:08:41;13.90;95.90
13521;DHT22;6832;51.186;3.236;2022-12-20T14:11:17;13.90;96.00
13521;DHT22;6832;51.186;3.236;2022-12-20T14:13:50;13.90;95.90
13521;DHT22;6832;51.186;3.236;2022-12-20T14:16:21;13.90;95.90
13521;DHT22;6832;51.186;3.236;2022-12-20T14:18:49;13.90;95.90
13521;DHT22;6832;51.186;3.236;2022-12-20T14:21:19;13.90;95.90
13521;DHT22;6832;51.186;3.236;2022-12-20T14:23:55;13.90;95.90
13521;DHT22;6832;51.186;3.236;2022-12-20T14:26:27;13.90;95.80
13521;DHT22;6832;51.186;3.236;2022-12-20T14:29:00;13.90;95.80
13521;DHT22;6832;51.186;3.236;2022-12-20T14:31:37;13.90;96.00
13521;DHT22;6832;51.186;3.236;2022-12-20T14:34:11;13.90;96.00
13521;DHT22;6832;51.186;3.236;2022-12-20T14:36:43;13.90;96.00
13521;DHT22;6832;51.186;3.236;2022-12-20T14:39:33;13.90;96.00
13521;DHT22;6832;51.186;3.236;2022-12-20T14:42:01;13.90;96.10
13521;DHT22;6832;51.186;3.236;2022-12-20T14:44:31;13.90;95.90
13521;DHT22;6832;51.186;3.236;2022-12-20T14:47:12;13.90;96.00
13521;DHT22;6832;51.186;3.236;2022-12-20T14:49:48;13.90;96.00
13521;DHT22;6832;51.186;3.236;2022-12-20T14:52:23;13.90;96.10
13521;DHT22;6832;51.186;3.236;2022-12-20T14:54:59;13.90;96.10
13521;DHT22;6832;51.186;3.236;2022-12-20T14:57:31;13.90;96.10
13521;DHT22;6832;51.186;3.236;2022-12-20T15:00:13;13.90;96.00
13521;DHT22;6832;51.186;3.236;2022-12-20T15:02:55;13.90;96.10
13521;DHT22;6832;51.186;3.236;2022-12-20T15:05:49;13.90;96.10
13521;DHT22;6832;51.186;3.236;2022-12-20T15:08:22;13.90;96.10
13521;DHT22;6832;51.186;3.236;2022-12-20T15:11:14;14.00;96.10
13521;DHT22;6832;51.186;3.236;2022-12-20T15:13:45;13.90;96.10
13521;DHT22;6832;51.186;3.236;2022-12-20T15:16:15;13.90;95.90
13521;DHT22;6832;51.186;3.236;2022-12-20T15:18:47;14.00;96.00
13521;DHT22;6832;51.186;3.236;2022-12-20T15:21:17;13.90;96.00
13521;DHT22;6832;51.186;3.236;2022-12-20T15:23:54;13.90;95.90
13521;DHT22;6832;51.186;3.236;2022-12-20T15:26:28;13.90;95.90
13521;DHT22;6832;51.186;3.236;2022-12-20T15:28:59;13.90;95.90
13521;DHT22;6832;51.186;3.236;2022-12-20T15:31:32;14.00;95.90
13521;DHT22;6832;51.186;3.236;2022-12-20T15:34:03;13.90;95.90
13521;DHT22;6832;51.186;3.236;2022-12-20T15:36:42;13.90;95.80
13521;DHT22;6832;51.186;3.236;2022-12-20T15:39:13;13.90;95.70
13521;DHT22;6832;51.186;3.236;2022-12-20T15:41:48;13.90;95.70
13521;DHT22;6832;51.186;3.236;2022-12-20T15:44:19;14.00;95.80
13521;DHT22;6832;51.186;3.236;2022-12-20T15:46:49;13.90;95.70
13521;DHT22;6832;51.186;3.236;2022-12-20T15:49:26;13.90;95.80
13521;DHT22;6832;51.186;3.236;2022-12-20T15:55:33;13.90;96.00
13521;DHT22;6832;51.186;3.236;2022-12-20T15:58:17;13.90;95.80
13521;DHT22;6832;51.186;3.236;2022-12-20T16:00:52;13.90;96.00
13521;DHT22;6832;51.186;3.236;2022-12-20T16:07:15;13.90;96.10
13521;DHT22;6832;51.186;3.236;2022-12-20T16:09:48;13.90;96.00
13521;DHT22;6832;51.186;3.236;2022-12-20T16:12:18;13.90;95.90
13521;DHT22;6832;51.186;3.236;2022-12-20T16:14:48;13.90;95.90
13521;DHT22;6832;51.186;3.236;2022-12-20T16:17:16;13.80;95.90
13521;DHT22;6832;51.186;3.236;2022-12-20T16:19:45;13.90;95.90
13521;DHT22;6832;51.186;3.236;2022-12-20T16:22:16;13.90;96.00
13521;DHT22;6832;51.186;3.236;2022-12-20T16:24:47;13.90;96.10
13521;DHT22;6832;51.186;3.236;2022-12-20T16:27:16;13.90;96.00
13521;DHT22;6832;51.186;3.236;2022-12-20T16:29:45;13.90;96.00
13521;DHT22;6832;51.186;3.236;2022-12-20T16:32:16;13.90;96.00
13521;DHT22;6832;51.186;3.236;2022-12-20T16:34:49;13.90;96.00
13521;DHT22;6832;51.186;3.236;2022-12-20T16:37:17;13.90;96.00
13521;DHT22;6832;51.186;3.236;2022-12-20T16:39:48;13.90;96.00
13521;DHT22;6832;51.186;3.236;2022-12-20T16:42:18;13.90;96.00
13521;DHT22;6832;51.186;3.236;2022-12-20T16:44:50;13.90;96.00
13521;DHT22;6832;51.186;3.236;2022-12-20T16:47:28;13.90;96.20
13521;DHT22;6832;51.186;3.236;2022-12-20T16:50:00;13.90;96.00
13521;DHT22;6832;51.186;3.236;2022-12-20T16:52:28;13.90;95.90
13521;DHT22;6832;51.186;3.236;2022-12-20T16:55:05;13.90;95.80
13521;DHT22;6832;51.186;3.236;2022-12-20T16:57:35;13.90;96.00
13521;DHT22;6832;51.186;3.236;2022-12-20T17:00:03;13.90;95.90
13521;DHT22;6832;51.186;3.236;2022-12-20T17:02:34;13.90;95.80
13521;DHT22;6832;51.186;3.236;2022-12-20T17:05:04;13.90;95.80
13521;DHT22;6832;51.186;3.236;2022-12-20T17:07:32;13.90;95.90
13521;DHT22;6832;51.186;3.236;2022-12-20T17:10:06;13.90;95.70
13521;DHT22;6832;51.186;3.236;2022-12-20T17:12:45;13.90;95.90
13521;DHT22;6832;51.186;3.236;2022-12-20T17:15:18;13.90;95.90
13521;DHT22;6832;51.186;3.236;2022-12-20T17:17:47;13.90;95.80
13521;DHT22;6832;51.186;3.236;2022-12-20T17:20:16;13.90;95.80
13521;DHT22;6832;51.186;3.236;2022-12-20T17:22:51;13.90;95.80
13521;DHT22;6832;51.186;3.236;2022-12-20T17:25:29;14.00;95.90
13521;DHT22;6832;51.186;3.236;2022-12-20T17:27:56;13.90;95.80
13521;DHT22;6832;51.186;3.236;2022-12-20T17:30:31;13.90;95.80
13521;DHT22;6832;51.186;3.236;2022-12-20T17:33:02;14.00;95.90
13521;DHT22;6832;51.186;3.236;2022-12-20T17:35:32;14.00;95.80
13521;DHT22;6832;51.186;3.236;2022-12-20T17:38:01;14.00;95.80
13521;DHT22;6832;51.186;3.236;2022-12-20T17:40:35;14.00;95.70
13521;DHT22;6832;51.186;3.236;2022-12-20T17:43:14;14.00;95.70
13521;DHT22;6832;51.186;3.236;2022-12-20T17:45:44;14.00;95.80
13521;DHT22;6832;51.186;3.236;2022-12-20T17:48:31;14.00;95.70
13521;DHT22;6832;51.186;3.236;2022-12-20T17:51:07;14.00;95.70
13521;DHT22;6832;51.186;3.236;2022-12-20T17:53:53;14.00;95.50
13521;DHT22;6832;51.186;3.236;2022-12-20T17:56:25;14.00;95.60
13521;DHT22;6832;51.186;3.236;2022-12-20T17:58:55;14.00;95.50
13521;DHT22;6832;51.186;3.236;2022-12-20T18:01:25;14.00;95.50
13521;DHT22;6832;51.186;3.236;2022-12-20T18:04:01;14.00;95.50
13521;DHT22;6832;51.186;3.236;2022-12-20T18:06:32;14.00;95.50
13521;DHT22;6832;51.186;3.236;2022-12-20T18:09:10;13.90;95.40
13521;DHT22;6832;51.186;3.236;2022-12-20T18:11:38;13.90;95.40
13521;DHT22;6832;51.186;3.236;2022-12-20T18:14:15;14.00;95.40
13521;DHT22;6832;51.186;3.236;2022-12-20T18:16:59;13.90;95.40
13521;DHT22;6832;51.186;3.236;2022-12-20T18:19:31;13.90;95.40
13521;DHT22;6832;51.186;3.236;2022-12-20T18:22:11;13.90;95.30
13521;DHT22;6832;51.186;3.236;2022-12-20T18:25:02;13.90;95.40
13521;DHT22;6832;51.186;3.236;2022-12-20T18:27:38;13.90;95.40
13521;DHT22;6832;51.186;3.236;2022-12-20T18:30:07;13.90;95.30
13521;DHT22;6832;51.186;3.236;2022-12-20T18:32:38;13.90;95.30
13521;DHT22;6832;51.186;3.236;2022-12-20T18:35:37;13.90;95.20
13521;DHT22;6832;51.186;3.236;2022-12-20T18:39:33;13.90;95.30
13521;DHT22;6832;51.186;3.236;2022-12-20T18:41:13;13.90;95.30
13521;DHT22;6832;51.186;3.236;2022-12-20T18:43:44;13.90;95.40
13521;DHT22;6832;51.186;3.236;2022-12-20T18:46:15;13.90;95.30
13521;DHT22;6832;51.186;3.236;2022-12-20T18:48:44;13.90;95.20
13521;DHT22;6832;51.186;3.236;2022-12-20T18:51:17;13.90;95.20
13521;DHT22;6832;51.186;3.236;2022-12-20T18:53:48;13.90;95.20
13521;DHT22;6832;51.186;3.236;2022-12-20T18:56:24;13.90;95.20
13521;DHT22;6832;51.186;3.236;2022-12-20T18:58:55;13.90;95.20
13521;DHT22;6832;51.186;3.236;2022-12-20T19:01:32;13.90;95.10
13521;DHT22;6832;51.186;3.236;2022-12-20T19:04:02;13.90;95.10
13521;DHT22;6832;51.186;3.236;2022-12-20T19:06:39;13.90;95.10
13521;DHT22;6832;51.186;3.236;2022-12-20T19:09:09;13.80;95.10
13521;DHT22;6832;51.186;3.236;2022-12-20T19:11:41;13.90;95.10
13521;DHT22;6832;51.186;3.236;2022-12-20T19:14:11;13.80;95.00
13521;DHT22;6832;51.186;3.236;2022-12-20T19:16:41;13.80;94.90
13521;DHT22;6832;51.186;3.236;2022-12-20T19:19:12;13.80;94.80
13521;DHT22;6832;51.186;3.236;2022-12-20T19:21:48;13.80;94.80
13521;DHT22;6832;51.186;3.236;2022-12-20T19:24:19;13.80;94.90
13521;DHT22;6832;51.186;3.236;2022-12-20T19:26:59;13.80;94.80
13521;DHT22;6832;51.186;3.236;2022-12-20T19:29:43;13.80;94.90
13521;DHT22;6832;51.186;3.236;2022-12-20T19:32:19;13.70;94.90
13521;DHT22;6832;51.186;3.236;2022-12-20T19:35:00;13.70;95.00
13521;DHT22;6832;51.186;3.236;2022-12-20T19:37:39;13.70;95.00
13521;DHT22;6832;51.186;3.236;2022-12-20T19:40:09;13.70;94.90
13521;DHT22;6832;51.186;3.236;2022-12-20T19:42:52;13.70;94.90
13521;DHT22;6832;51.186;3.236;2022-12-20T19:45:24;13.70;95.20
13521;DHT22;6832;51.186;3.236;2022-12-20T19:47:57;13.70;94.90
13521;DHT22;6832;51.186;3.236;2022-12-20T19:50:29;13.70;95.00
13521;DHT22;6832;51.186;3.236;2022-12-20T19:53:06;13.70;94.90
13521;DHT22;6832;51.186;3.236;2022-12-20T19:55:39;13.70;95.00
13521;DHT22;6832;51.186;3.236;2022-12-20T19:58:16;13.60;94.90
13521;DHT22;6832;51.186;3.236;2022-12-20T20:00:47;13.70;94.90
13521;DHT22;6832;51.186;3.236;2022-12-20T20:03:34;13.60;94.80
13521;DHT22;6832;51.186;3.236;2022-12-20T20:06:03;13.60;94.80
13521;DHT22;6832;51.186;3.236;2022-12-20T20:08:38;13.60;94.80
13521;DHT22;6832;51.186;3.236;2022-12-20T20:11:14;13.60;94.80
13521;DHT22;6832;51.186;3.236;2022-12-20T20:13:43;13.60;94.90
13521;DHT22;6832;51.186;3.236;2022-12-20T20:16:22;13.60;94.80
13521;DHT22;6832;51.186;3.236;2022-12-20T20:18:51;13.60;94.80
13521;DHT22;6832;51.186;3.236;2022-12-20T20:21:26;13.60;94.90
13521;DHT22;6832;51.186;3.236;2022-12-20T20:23:55;13.60;94.90
13521;DHT22;6832;51.186;3.236;2022-12-20T20:26:29;13.60;94.80
13521;DHT22;6832;51.186;3.236;2022-12-20T20:29:00;13.60;94.90
13521;DHT22;6832;51.186;3.236;2022-12-20T20:31:32;13.60;94.80
13521;DHT22;6832;51.186;3.236;2022-12-20T20:34:04;13.60;94.80
13521;DHT22;6832;51.186;3.236;2022-12-20T20:36:33;13.50;94.70
13521;DHT22;6832;51.186;3.236;2022-12-20T20:39:02;13.60;94.60
13521;DHT22;6832;51.186;3.236;2022-12-20T20:41:32;13.50;94.50
13521;DHT22;6832;51.186;3.236;2022-12-20T20:44:02;13.50;94.60
13521;DHT22;6832;51.186;3.236;2022-12-20T20:46:31;13.50;94.60
13521;DHT22;6832;51.186;3.236;2022-12-20T20:48:59;13.50;95.00
13521;DHT22;6832;51.186;3.236;2022-12-20T20:51:28;13.50;94.60
13521;DHT22;6832;51.186;3.236;2022-12-20T20:53:56;13.50;94.50
13521;DHT22;6832;51.186;3.236;2022-12-20T20:56:25;13.50;94.50
13521;DHT22;6832;51.186;3.236;2022-12-20T20:58:55;13.50;94.30
13521;DHT22;6832;51.186;3.236;2022-12-20T21:01:22;13.40;94.20
13521;DHT22;6832;51.186;3.236;2022-12-20T21:03:53;13.40;94.30